createdAt,value
2023-12-23T00:00:12.100Z,4.54
2023-12-23T00:03:01.998Z,4.63
2023-12-23T00:05:50.239Z,4.67
2023-12-23T00:08:38.459Z,4.62
2023-12-23T00:11:26.426Z,4.49
2023-12-23T00:14:16.079Z,4.54
2023-12-23T00:17:04.629Z,4.54
2023-12-23T00:19:52.873Z,4.46
2023-12-23T00:22:41.025Z,4.13
2023-12-23T00:25:28.998Z,4.26
2023-12-23T00:28:17.158Z,4.06
2023-12-23T00:31:06.541Z,4.12
2023-12-23T00:33:54.856Z,4.16
2023-12-23T00:36:42.872Z,4.07
2023-12-23T00:39:30.852Z,4.07
2023-12-23T00:42:18.889Z,4.09
2023-12-23T00:45:08.136Z,4.07
2023-12-23T00:47:58.154Z,4.03
2023-12-23T00:50:46.381Z,3.97
2023-12-23T00:53:34.433Z,3.89
2023-12-23T00:56:23.070Z,3.82
2023-12-23T00:59:11.270Z,3.85
2023-12-23T01:01:59.228Z,3.86
2023-12-23T01:04:48.634Z,4.05
2023-12-23T01:07:37.567Z,3.86
2023-12-23T01:10:10.844Z,3.83
2023-12-23T01:12:59.102Z,3.50
2023-12-23T01:15:46.989Z,3.56
2023-12-23T01:18:34.958Z,3.50
2023-12-23T01:21:24.336Z,3.47
2023-12-23T01:24:12.559Z,3.31
2023-12-23T01:27:00.496Z,3.19
2023-12-23T01:29:48.661Z,3.26
2023-12-23T01:32:36.566Z,3.35
2023-12-23T01:35:25.413Z,3.19
2023-12-23T01:38:14.805Z,3.20
2023-12-23T01:41:02.903Z,3.20
2023-12-23T01:43:51.126Z,3.05
2023-12-23T01:46:39.441Z,2.97
2023-12-23T01:49:27.995Z,2.66
2023-12-23T01:52:16.023Z,2.61
2023-12-23T01:55:06.056Z,2.85
2023-12-23T01:57:53.950Z,2.73
2023-12-23T02:00:42.156Z,2.45
2023-12-23T02:03:30.554Z,2.61
2023-12-23T02:06:18.687Z,2.61
2023-12-23T02:09:07.120Z,2.29
2023-12-23T02:11:50.262Z,2.53
2023-12-23T02:14:43.151Z,2.49
2023-12-23T02:17:31.410Z,2.60
2023-12-23T02:20:19.291Z,2.40
2023-12-23T02:23:09.033Z,2.46
2023-12-23T02:26:02.235Z,2.51
2023-12-23T02:28:53.641Z,2.53
2023-12-23T02:31:42.450Z,2.47
2023-12-23T02:34:31.211Z,2.55
2023-12-23T02:37:19.349Z,2.55
2023-12-23T02:40:10.214Z,2.40
2023-12-23T02:42:58.186Z,2.71
2023-12-23T02:45:46.092Z,2.85
2023-12-23T02:48:34.284Z,2.68
2023-12-23T02:51:22.373Z,2.60
2023-12-23T02:54:10.401Z,2.57
2023-12-23T02:56:59.926Z,2.68
2023-12-23T02:59:48.061Z,2.58
2023-12-23T03:02:36.311Z,2.45
2023-12-23T03:05:24.403Z,2.48
2023-12-23T03:08:12.485Z,2.33
2023-12-23T03:11:00.492Z,2.38
2023-12-23T03:13:49.970Z,2.40
2023-12-23T03:16:38.145Z,2.39
2023-12-23T03:19:26.304Z,2.26
2023-12-23T03:22:14.494Z,2.29
2023-12-23T03:25:02.516Z,2.20
2023-12-23T03:27:50.358Z,2.18
2023-12-23T03:30:39.752Z,2.33
2023-12-23T03:33:27.823Z,2.23
2023-12-23T03:36:15.960Z,2.27
2023-12-23T03:39:05.040Z,2.11
2023-12-23T03:41:53.119Z,2.14
2023-12-23T03:44:41.033Z,2.19
2023-12-23T03:47:30.807Z,2.18
2023-12-23T03:50:18.803Z,2.40
2023-12-23T03:53:06.986Z,2.08
2023-12-23T03:55:55.144Z,2.12
2023-12-23T03:58:43.224Z,2.55
2023-12-23T04:01:31.676Z,2.45
2023-12-23T04:04:21.579Z,2.47
2023-12-23T04:07:09.616Z,2.05
2023-12-23T04:09:57.601Z,2.02
2023-12-23T04:12:45.677Z,2.08
2023-12-23T04:15:33.637Z,2.41
2023-12-23T04:18:21.722Z,2.04
2023-12-23T04:21:12.212Z,1.86
2023-12-23T04:24:00.973Z,2.20
2023-12-23T04:26:48.966Z,1.85
2023-12-23T04:29:37.018Z,1.78
2023-12-23T04:32:25.093Z,1.82
2023-12-23T04:35:13.219Z,2.14
2023-12-23T04:38:02.670Z,2.04
2023-12-23T04:40:50.836Z,1.29
2023-12-23T04:43:38.874Z,2.04
2023-12-23T04:46:27.484Z,2.12
2023-12-23T04:49:15.432Z,1.88
2023-12-23T04:52:03.544Z,1.64
2023-12-23T04:54:52.992Z,1.84
2023-12-23T04:57:41.375Z,2.06
2023-12-23T05:00:29.651Z,1.54
2023-12-23T05:03:17.674Z,1.59
2023-12-23T05:06:06.508Z,1.60
2023-12-23T05:08:54.421Z,1.59
2023-12-23T05:11:43.779Z,1.63
2023-12-23T05:14:31.961Z,1.59
2023-12-23T05:17:20.149Z,2.04
2023-12-23T05:20:10.958Z,1.34
2023-12-23T05:22:58.890Z,1.38
2023-12-23T05:25:47.796Z,1.65
2023-12-23T05:28:37.229Z,2.12
2023-12-23T05:31:25.181Z,1.55
2023-12-23T05:34:13.101Z,1.49
2023-12-23T05:37:01.156Z,1.62
2023-12-23T05:39:49.643Z,1.52
2023-12-23T05:42:37.663Z,1.71
2023-12-23T05:45:27.260Z,1.73
2023-12-23T05:48:15.724Z,1.56
2023-12-23T05:51:04.382Z,1.56
2023-12-23T05:53:52.301Z,1.82
2023-12-23T05:56:40.365Z,1.52
2023-12-23T05:59:28.656Z,1.46
2023-12-23T06:02:18.144Z,1.97
2023-12-23T06:05:07.205Z,1.55
2023-12-23T06:07:56.458Z,1.33
2023-12-23T06:10:50.936Z,1.77
2023-12-23T06:13:45.815Z,1.77
2023-12-23T06:16:33.932Z,1.63
2023-12-23T06:19:23.462Z,1.63
2023-12-23T06:22:11.852Z,1.43
2023-12-23T06:25:00.149Z,1.71
2023-12-23T06:27:48.251Z,1.43
2023-12-23T06:30:36.339Z,1.50
2023-12-23T06:33:24.564Z,1.59
2023-12-23T06:36:13.935Z,1.67
2023-12-23T06:39:01.948Z,1.89
2023-12-23T06:41:50.055Z,2.13
2023-12-23T06:44:38.035Z,1.87
2023-12-23T06:47:26.249Z,1.76
2023-12-23T06:50:14.849Z,2.07
2023-12-23T06:53:04.464Z,2.16
2023-12-23T06:55:52.372Z,2.24
2023-12-23T06:58:40.988Z,2.13
2023-12-23T07:01:37.948Z,2.18
2023-12-23T07:04:25.942Z,2.23
2023-12-23T07:07:13.813Z,1.91
2023-12-23T07:10:05.398Z,2.08
2023-12-23T07:12:57.135Z,2.25
2023-12-23T07:15:45.833Z,2.33
2023-12-23T07:18:34.000Z,2.49
2023-12-23T07:21:21.935Z,2.52
2023-12-23T07:24:10.058Z,2.50
2023-12-23T07:26:59.495Z,2.69
2023-12-23T07:29:48.292Z,2.86
2023-12-23T07:32:36.690Z,2.74
2023-12-23T07:35:24.918Z,2.91
2023-12-23T07:38:13.049Z,2.81
2023-12-23T07:41:01.246Z,3.13
2023-12-23T07:43:51.223Z,3.12
2023-12-23T07:46:39.271Z,3.16
2023-12-23T07:49:27.430Z,3.27
2023-12-23T07:52:15.206Z,3.51
2023-12-23T07:55:03.348Z,3.71
2023-12-23T07:57:51.310Z,3.73
2023-12-23T08:00:40.718Z,3.76
2023-12-23T08:03:28.623Z,3.83
2023-12-23T08:06:18.309Z,3.95
2023-12-23T08:09:06.696Z,4.01
2023-12-23T08:11:54.465Z,4.47
2023-12-23T08:14:42.665Z,4.51
2023-12-23T08:17:32.318Z,4.44
2023-12-23T08:20:20.392Z,4.46
2023-12-23T08:23:08.564Z,4.80
2023-12-23T08:25:56.528Z,4.83
2023-12-23T08:28:46.650Z,5.12
2023-12-23T08:31:35.161Z,5.10
2023-12-23T08:34:24.868Z,5.23
2023-12-23T08:37:12.801Z,5.24
2023-12-23T08:40:00.796Z,5.45
2023-12-23T08:42:49.132Z,5.45
2023-12-23T08:45:37.216Z,5.74
2023-12-23T08:48:25.325Z,5.98
2023-12-23T08:51:15.057Z,6.00
2023-12-23T08:54:03.149Z,6.05
2023-12-23T08:56:51.043Z,6.13
2023-12-23T08:59:39.079Z,6.33
2023-12-23T09:02:28.368Z,6.66
2023-12-23T09:05:16.801Z,6.83
2023-12-23T09:08:07.065Z,6.90
2023-12-23T09:10:55.361Z,6.99
2023-12-23T09:13:43.663Z,7.28
2023-12-23T09:16:31.686Z,7.63
2023-12-23T09:19:19.859Z,7.74
2023-12-23T09:22:07.839Z,7.58
2023-12-23T09:24:57.462Z,7.75
2023-12-23T09:27:45.473Z,7.83
2023-12-23T09:30:33.458Z,7.77
2023-12-23T09:33:21.738Z,7.93
2023-12-23T09:36:10.005Z,8.16
2023-12-23T09:38:58.134Z,8.54
2023-12-23T09:41:48.206Z,8.62
2023-12-23T09:44:36.140Z,8.73
2023-12-23T09:47:24.510Z,8.93
2023-12-23T09:50:13.000Z,8.71
2023-12-23T09:53:02.643Z,8.88
2023-12-23T09:55:50.693Z,8.83
2023-12-23T09:58:40.219Z,9.21
2023-12-23T10:01:28.405Z,9.26
2023-12-23T10:04:16.305Z,9.18
2023-12-23T10:07:04.577Z,9.70
2023-12-23T10:09:52.450Z,9.93
2023-12-23T10:12:40.685Z,10.02
2023-12-23T10:15:30.674Z,9.71
2023-12-23T10:18:19.246Z,9.88
2023-12-23T10:21:07.509Z,9.76
2023-12-23T10:23:55.622Z,9.64
2023-12-23T10:26:44.450Z,9.35
2023-12-23T10:29:35.451Z,9.78
2023-12-23T10:32:26.640Z,9.91
2023-12-23T10:35:17.534Z,9.91
2023-12-23T10:38:11.327Z,9.88
2023-12-23T10:41:08.869Z,10.15
2023-12-23T10:43:57.978Z,10.11
2023-12-23T10:46:47.005Z,10.36
2023-12-23T10:49:37.810Z,10.32
2023-12-23T10:52:26.802Z,10.13
2023-12-23T10:55:14.893Z,10.83
2023-12-23T10:58:04.859Z,10.52
2023-12-23T11:00:55.524Z,10.36
2023-12-23T11:03:45.778Z,10.42
2023-12-23T11:06:22.398Z,10.54
2023-12-23T11:08:56.059Z,10.40
2023-12-23T11:11:31.340Z,10.23
2023-12-23T11:14:06.107Z,9.95
2023-12-23T11:16:41.106Z,9.85
2023-12-23T11:19:14.058Z,9.99
2023-12-23T11:21:48.600Z,9.92
2023-12-23T11:24:34.644Z,9.68
2023-12-23T11:27:09.469Z,9.58
2023-12-23T11:29:42.521Z,9.47
2023-12-23T11:32:15.924Z,9.37
2023-12-23T11:34:49.646Z,9.27
2023-12-23T11:37:24.640Z,9.21
2023-12-23T11:40:04.794Z,8.91
2023-12-23T11:42:37.716Z,9.21
2023-12-23T11:45:12.319Z,9.18
2023-12-23T11:47:45.592Z,9.16
2023-12-23T11:50:18.797Z,9.09
2023-12-23T11:52:54.792Z,9.11
2023-12-23T11:55:28.014Z,9.05
2023-12-23T11:58:02.533Z,9.15
2023-12-23T12:00:38.945Z,8.97
2023-12-23T12:03:12.610Z,9.13
2023-12-23T12:06:01.665Z,9.09
2023-12-23T12:08:51.312Z,9.19
2023-12-23T12:11:39.637Z,9.26
2023-12-23T12:14:29.074Z,9.27
2023-12-23T12:17:17.147Z,9.24
2023-12-23T12:20:06.070Z,9.24
2023-12-23T12:22:54.413Z,9.18
2023-12-23T12:25:50.336Z,9.28
2023-12-23T12:28:38.879Z,9.23
2023-12-23T12:31:26.916Z,9.23
2023-12-23T12:34:14.932Z,9.20
2023-12-23T12:37:03.766Z,9.24
2023-12-23T12:39:51.730Z,9.20
2023-12-23T12:42:47.888Z,9.10
2023-12-23T12:45:42.082Z,9.11
2023-12-23T12:48:30.858Z,9.12
2023-12-23T12:51:19.103Z,9.33
2023-12-23T12:54:07.354Z,9.21
2023-12-23T12:56:55.748Z,9.19
2023-12-23T12:59:45.073Z,9.08
2023-12-23T13:02:33.177Z,9.33
2023-12-23T13:05:21.803Z,9.22
2023-12-23T13:08:09.841Z,9.31
2023-12-23T13:10:58.122Z,9.27
2023-12-23T13:13:46.757Z,9.21
2023-12-23T13:16:36.162Z,9.18
2023-12-23T13:19:24.290Z,9.19
2023-12-23T13:22:12.238Z,9.09
2023-12-23T13:25:00.596Z,8.99
2023-12-23T13:27:48.568Z,9.20
2023-12-23T13:30:37.000Z,9.20
2023-12-23T13:33:26.589Z,9.25
2023-12-23T13:36:14.771Z,9.23
2023-12-23T13:39:08.051Z,9.20
2023-12-23T13:41:55.925Z,9.17
2023-12-23T13:44:44.146Z,8.87
2023-12-23T13:47:33.728Z,9.07
2023-12-23T13:50:24.167Z,9.08
2023-12-23T13:53:16.074Z,9.12
2023-12-23T13:56:09.460Z,8.85
2023-12-23T13:58:57.803Z,8.86
2023-12-23T14:01:45.945Z,8.84
2023-12-23T14:04:34.004Z,8.81
2023-12-23T14:07:23.598Z,8.63
2023-12-23T14:10:12.427Z,8.77
2023-12-23T14:13:00.556Z,8.74
2023-12-23T14:15:48.406Z,8.57
2023-12-23T14:18:36.897Z,8.58
2023-12-23T14:21:25.140Z,8.48
2023-12-23T14:24:14.575Z,8.44
2023-12-23T14:27:02.993Z,8.35
2023-12-23T14:29:50.936Z,8.36
2023-12-23T14:32:39.177Z,8.33
2023-12-23T14:35:27.179Z,8.27
2023-12-23T14:38:15.371Z,8.09
2023-12-23T14:41:04.961Z,8.09
2023-12-23T14:43:52.840Z,7.87
2023-12-23T14:46:43.146Z,8.05
2023-12-23T14:49:31.065Z,7.96
2023-12-23T14:52:19.358Z,7.92
2023-12-23T14:55:08.994Z,7.89
2023-12-23T14:57:58.271Z,7.92
2023-12-23T15:00:46.375Z,7.77
2023-12-23T15:03:34.234Z,7.72
2023-12-23T15:06:22.460Z,7.62
2023-12-23T15:09:10.782Z,7.58
2023-12-23T15:11:59.113Z,7.48
2023-12-23T15:14:48.496Z,7.52
2023-12-23T15:17:36.803Z,7.53
2023-12-23T15:20:24.898Z,7.08
2023-12-23T15:23:12.849Z,7.51
2023-12-23T15:26:01.049Z,7.48
2023-12-23T15:28:49.173Z,7.37
2023-12-23T15:31:38.679Z,7.40
2023-12-23T15:34:26.812Z,7.36
2023-12-23T15:37:15.053Z,7.41
2023-12-23T15:40:03.185Z,7.32
2023-12-23T15:42:51.396Z,7.34
2023-12-23T15:45:39.437Z,7.30
2023-12-23T15:48:29.622Z,7.30
2023-12-23T15:51:17.898Z,7.29
2023-12-23T15:54:06.187Z,7.25
2023-12-23T15:56:54.372Z,7.36
2023-12-23T15:59:42.307Z,7.28
2023-12-23T16:02:30.643Z,7.29
2023-12-23T16:05:20.353Z,7.30
2023-12-23T16:08:10.848Z,7.27
2023-12-23T16:10:59.221Z,7.37
2023-12-23T16:13:49.271Z,7.32
2023-12-23T16:16:37.366Z,7.31
2023-12-23T16:19:25.586Z,7.38
2023-12-23T16:22:15.081Z,7.34
2023-12-23T16:25:03.243Z,7.29
2023-12-23T16:27:51.966Z,7.31
2023-12-23T16:30:40.242Z,7.18
2023-12-23T16:33:28.449Z,7.04
2023-12-23T16:36:16.443Z,7.00
2023-12-23T16:39:06.098Z,6.92
2023-12-23T16:41:53.978Z,6.82
2023-12-23T16:44:42.214Z,6.71
2023-12-23T16:47:30.467Z,6.56
2023-12-23T16:50:18.935Z,6.54
2023-12-23T16:53:07.033Z,6.47
2023-12-23T16:55:56.604Z,6.69
2023-12-23T16:58:44.700Z,6.64
2023-12-23T17:01:32.850Z,6.57
2023-12-23T17:04:20.914Z,6.44
2023-12-23T17:07:08.884Z,6.48
2023-12-23T17:09:57.091Z,6.41
2023-12-23T17:12:47.602Z,6.35
2023-12-23T17:15:35.751Z,6.22
2023-12-23T17:18:23.831Z,6.19
2023-12-23T17:21:13.496Z,6.07
2023-12-23T17:24:01.627Z,6.12
2023-12-23T17:26:49.645Z,6.08
2023-12-23T17:29:39.395Z,6.04
2023-12-23T17:32:27.844Z,5.87
2023-12-23T17:35:16.164Z,5.85
2023-12-23T17:38:04.144Z,5.74
2023-12-23T17:40:52.052Z,5.66
2023-12-23T17:43:41.401Z,5.71
2023-12-23T17:46:30.882Z,5.70
2023-12-23T17:49:19.181Z,5.56
2023-12-23T17:52:07.794Z,5.47
2023-12-23T17:54:57.041Z,5.44
2023-12-23T17:57:45.164Z,5.45
2023-12-23T18:00:33.435Z,5.39
2023-12-23T18:03:23.045Z,5.39
2023-12-23T18:06:11.554Z,5.03
2023-12-23T18:08:59.843Z,5.31
2023-12-23T18:11:48.126Z,5.18
2023-12-23T18:14:36.151Z,5.36
2023-12-23T18:17:24.782Z,5.30
2023-12-23T18:20:14.530Z,5.22
2023-12-23T18:23:02.728Z,5.28
2023-12-23T18:25:50.743Z,4.87
2023-12-23T18:28:39.097Z,5.34
2023-12-23T18:31:27.062Z,5.33
2023-12-23T18:34:15.301Z,5.19
2023-12-23T18:37:05.071Z,5.26
2023-12-23T18:39:52.954Z,5.25
2023-12-23T18:42:41.073Z,5.29
2023-12-23T18:45:29.027Z,5.33
2023-12-23T18:48:17.321Z,5.30
2023-12-23T18:51:05.694Z,5.18
2023-12-23T18:53:55.209Z,5.19
2023-12-23T18:56:43.176Z,5.26
2023-12-23T18:59:31.489Z,5.32
2023-12-23T19:02:05.576Z,5.33
2023-12-23T19:04:39.071Z,5.18
2023-12-23T19:07:12.134Z,5.20
2023-12-23T19:09:47.311Z,5.22
2023-12-23T19:12:20.321Z,5.16
2023-12-23T19:14:53.590Z,5.21
2023-12-23T19:17:26.607Z,5.07
2023-12-23T19:20:03.378Z,5.00
2023-12-23T19:22:36.568Z,5.15
2023-12-23T19:25:11.535Z,4.94
2023-12-23T19:27:44.830Z,4.95
2023-12-23T19:30:18.029Z,5.00
2023-12-23T19:32:51.252Z,4.92
2023-12-23T19:35:24.396Z,4.84
2023-12-23T19:38:00.932Z,4.82
2023-12-23T19:40:36.582Z,4.70
2023-12-23T19:43:10.053Z,4.77
2023-12-23T19:45:44.619Z,4.88
2023-12-23T19:48:17.760Z,4.77
2023-12-23T19:50:50.837Z,4.68
2023-12-23T19:53:24.193Z,4.65
2023-12-23T19:55:59.581Z,4.71
2023-12-23T19:58:32.652Z,4.67
2023-12-23T20:01:05.802Z,4.54
2023-12-23T20:03:42.297Z,4.44
2023-12-23T20:06:15.486Z,4.49
2023-12-23T20:08:49.050Z,4.37
2023-12-23T20:11:25.832Z,4.48
2023-12-23T20:13:59.241Z,4.47
2023-12-23T20:16:32.285Z,4.49
2023-12-23T20:19:06.220Z,4.52
2023-12-23T20:21:39.564Z,4.45
2023-12-23T20:24:12.602Z,4.43
2023-12-23T20:26:47.383Z,4.51
2023-12-23T20:29:20.421Z,4.33
2023-12-23T20:31:53.442Z,4.31
2023-12-23T20:34:41.337Z,4.28
2023-12-23T20:37:29.303Z,4.25
2023-12-23T20:40:17.403Z,4.39
2023-12-23T20:43:06.796Z,4.13
2023-12-23T20:45:55.046Z,4.04
2023-12-23T20:48:28.130Z,4.49
2023-12-23T20:51:01.150Z,4.17
2023-12-23T20:53:34.297Z,3.96
2023-12-23T20:56:08.159Z,4.08
2023-12-23T20:58:43.144Z,3.85
2023-12-23T21:01:16.326Z,4.19
2023-12-23T21:03:49.397Z,4.13
2023-12-23T21:06:22.767Z,4.26
2023-12-23T21:08:56.062Z,4.04
2023-12-23T21:11:29.383Z,4.22
2023-12-23T21:14:03.725Z,4.09
2023-12-23T21:16:37.925Z,3.77
2023-12-23T21:19:11.234Z,4.05
2023-12-23T21:21:44.287Z,3.98
2023-12-23T21:24:17.381Z,3.91
2023-12-23T21:26:51.455Z,3.94
2023-12-23T21:29:25.862Z,3.70
2023-12-23T21:31:58.825Z,3.65
2023-12-23T21:34:31.677Z,3.72
2023-12-23T21:37:04.735Z,4.01
2023-12-23T21:39:38.152Z,3.76
2023-12-23T21:42:11.418Z,3.55
2023-12-23T21:44:45.676Z,3.78
2023-12-23T21:47:18.595Z,3.73
2023-12-23T21:49:52.077Z,3.78
2023-12-23T21:52:27.770Z,3.55
2023-12-23T21:55:01.445Z,3.89
2023-12-23T21:57:34.789Z,3.74
2023-12-23T22:00:11.435Z,3.62
2023-12-23T22:02:44.440Z,3.71
2023-12-23T22:05:17.890Z,3.70
2023-12-23T22:07:50.736Z,3.56
2023-12-23T22:10:24.214Z,3.64
2023-12-23T22:12:57.307Z,3.72
2023-12-23T22:15:31.800Z,3.71
2023-12-23T22:18:04.980Z,3.63
2023-12-23T22:20:38.144Z,3.48
2023-12-23T22:23:13.610Z,3.56
2023-12-23T22:25:46.880Z,3.57
2023-12-23T22:28:19.838Z,3.46
2023-12-23T22:30:54.169Z,3.60
2023-12-23T22:33:27.401Z,3.53
2023-12-23T22:36:00.368Z,3.54
2023-12-23T22:38:33.926Z,3.39
2023-12-23T22:41:07.241Z,3.29
2023-12-23T22:43:40.329Z,3.41
2023-12-23T22:46:14.792Z,3.83
2023-12-23T22:48:47.960Z,3.77
2023-12-23T22:51:21.414Z,3.51
2023-12-23T22:53:54.390Z,3.39
2023-12-23T22:56:27.619Z,3.27
2023-12-23T22:59:00.783Z,3.41
2023-12-23T23:01:35.411Z,3.25
2023-12-23T23:04:08.368Z,3.17
2023-12-23T23:06:41.338Z,3.23
2023-12-23T23:09:14.397Z,3.12
2023-12-23T23:11:47.467Z,3.44
2023-12-23T23:14:20.713Z,3.23
2023-12-23T23:16:55.214Z,3.29
2023-12-23T23:19:28.303Z,3.29
2023-12-23T23:22:01.424Z,3.36
2023-12-23T23:24:34.391Z,3.42
2023-12-23T23:27:07.332Z,3.33
2023-12-23T23:29:42.557Z,3.35
2023-12-23T23:32:17.894Z,3.36
2023-12-23T23:34:58.521Z,3.44
2023-12-23T23:37:37.898Z,3.40
2023-12-23T23:40:12.526Z,3.29
2023-12-23T23:42:45.573Z,3.54
2023-12-23T23:45:18.498Z,3.57
2023-12-23T23:47:53.063Z,3.51
2023-12-23T23:50:25.973Z,3.54
2023-12-23T23:52:59.077Z,3.41
2023-12-23T23:55:32.278Z,3.43
2023-12-23T23:58:05.338Z,3.41
